createdAt,value
2018-09-01T00:00:15.572Z,0.00
2018-09-01T00:01:15.600Z,0.00
2018-09-01T00:02:15.562Z,0.00
2018-09-01T00:03:15.535Z,0.00
2018-09-01T00:04:15.530Z,0.00
2018-09-01T00:05:15.516Z,0.00
2018-09-01T00:06:15.530Z,0.00
2018-09-01T00:07:15.491Z,0.00
2018-09-01T00:08:15.520Z,0.00
2018-09-01T00:09:15.483Z,0.00
2018-09-01T00:10:15.473Z,0.00
2018-09-01T00:11:15.542Z,0.00
2018-09-01T00:12:15.439Z,0.00
2018-09-01T00:13:15.436Z,0.00
2018-09-01T00:14:15.422Z,0.00
2018-09-01T00:15:15.412Z,0.00
2018-09-01T00:16:15.450Z,0.00
2018-09-01T00:17:15.384Z,0.00
2018-09-01T00:18:15.380Z,0.00
2018-09-01T00:19:15.361Z,0.00
2018-09-01T00:20:15.421Z,0.00
2018-09-01T00:21:15.379Z,0.00
2018-09-01T00:22:15.328Z,0.00
2018-09-01T00:23:15.320Z,0.00
2018-09-01T00:24:15.306Z,0.00
2018-09-01T00:25:15.326Z,0.00
2018-09-01T00:26:15.285Z,0.00
2018-09-01T00:27:15.273Z,0.00
2018-09-01T00:28:15.285Z,0.00
2018-09-01T00:29:15.276Z,0.00
2018-09-01T00:30:15.290Z,0.00
2018-09-01T00:31:15.230Z,0.00
2018-09-01T00:32:15.226Z,0.00
2018-09-01T00:33:15.210Z,0.00
2018-09-01T00:34:15.230Z,0.00
2018-09-01T00:35:15.210Z,0.00
2018-09-01T00:36:15.259Z,0.00
2018-09-01T00:37:15.207Z,0.00
2018-09-01T00:38:15.154Z,0.00
2018-09-01T00:39:15.167Z,0.00
2018-09-01T00:40:15.132Z,0.00
2018-09-01T00:41:15.118Z,0.00
2018-09-01T00:42:15.119Z,0.00
2018-09-01T00:43:15.097Z,0.00
2018-09-01T00:44:15.124Z,0.00
2018-09-01T00:45:15.082Z,0.00
2018-09-01T00:46:15.076Z,0.00
2018-09-01T00:47:15.091Z,0.00
2018-09-01T00:48:15.069Z,0.00
2018-09-01T00:49:15.029Z,0.00
2018-09-01T00:50:15.092Z,0.00
2018-09-01T00:51:15.014Z,0.00
2018-09-01T00:52:15.009Z,0.00
2018-09-01T00:53:14.986Z,0.00
2018-09-01T00:54:15.002Z,0.00
2018-09-01T00:55:15.017Z,0.00
2018-09-01T00:56:14.956Z,0.00
2018-09-01T00:57:14.938Z,0.00
2018-09-01T00:58:14.932Z,0.00
2018-09-01T00:59:14.921Z,0.00
2018-09-01T01:00:14.939Z,0.00
2018-09-01T01:01:14.898Z,0.00
2018-09-01T01:02:14.884Z,0.00
2018-09-01T01:03:14.884Z,0.00
2018-09-01T01:04:14.896Z,0.00
2018-09-01T01:05:14.861Z,0.00
2018-09-01T01:06:14.837Z,0.00
2018-09-01T01:07:14.829Z,0.00
2018-09-01T01:08:14.881Z,0.00
2018-09-01T01:09:14.851Z,0.00
2018-09-01T01:10:14.797Z,0.00
2018-09-01T01:11:14.785Z,0.00
2018-09-01T01:12:14.773Z,0.00
2018-09-01T01:13:14.764Z,0.00
2018-09-01T01:14:14.783Z,0.00
2018-09-01T01:15:14.743Z,0.00
2018-09-01T01:16:14.813Z,0.00
2018-09-01T01:17:14.747Z,0.00
2018-09-01T01:18:14.709Z,0.00
2018-09-01T01:19:14.696Z,0.00
2018-09-01T01:20:14.687Z,0.00
2018-09-01T01:21:14.712Z,0.00
2018-09-01T01:22:14.821Z,0.00
2018-09-01T01:23:14.648Z,0.00
2018-09-01T01:24:14.637Z,0.00
2018-09-01T01:25:14.635Z,0.00
2018-09-01T01:26:14.654Z,0.00
2018-09-01T01:27:14.608Z,0.00
2018-09-01T01:28:14.596Z,0.00
2018-09-01T01:29:14.588Z,0.00
2018-09-01T01:30:14.572Z,0.00
2018-09-01T01:31:14.589Z,0.00
2018-09-01T01:32:15.100Z,0.00
2018-09-01T01:33:14.545Z,0.00
2018-09-01T01:34:14.526Z,0.00
2018-09-01T01:35:14.531Z,0.00
2018-09-01T01:36:14.568Z,0.00
2018-09-01T01:37:14.496Z,0.00
2018-09-01T01:38:14.487Z,0.00
2018-09-01T01:39:14.474Z,0.00
2018-09-01T01:40:14.477Z,0.00
2018-09-01T01:41:14.500Z,0.00
2018-09-01T01:42:14.447Z,0.00
2018-09-01T01:43:14.431Z,0.00
2018-09-01T01:44:14.415Z,0.00
2018-09-01T01:45:14.417Z,0.00
2018-09-01T01:46:14.429Z,0.00
2018-09-01T01:47:14.384Z,0.00
2018-09-01T01:48:14.495Z,0.00
2018-09-01T01:49:14.393Z,0.00
2018-09-01T01:50:14.357Z,0.00
2018-09-01T01:51:14.339Z,0.00
2018-09-01T01:52:14.363Z,0.00
2018-09-01T01:53:14.326Z,0.00
2018-09-01T01:54:14.305Z,0.00
2018-09-01T01:55:14.323Z,0.00
2018-09-01T01:56:14.384Z,0.00
2018-09-01T01:57:14.281Z,0.00
2018-09-01T01:58:14.270Z,0.00
2018-09-01T01:59:14.253Z,0.00
2018-09-01T02:00:14.305Z,0.00
2018-09-01T02:01:14.261Z,0.00
2018-09-01T02:02:14.242Z,0.00
2018-09-01T02:03:14.209Z,0.00
2018-09-01T02:04:14.247Z,0.00
2018-09-01T02:05:14.220Z,0.00
2018-09-01T02:06:14.208Z,0.00
2018-09-01T02:07:14.169Z,0.00
2018-09-01T02:08:14.184Z,0.00
2018-09-01T02:09:14.162Z,0.00
2018-09-01T02:10:14.129Z,0.00
2018-09-01T02:11:14.127Z,0.00
2018-09-01T02:12:14.224Z,0.00
2018-09-01T02:13:14.091Z,0.00
2018-09-01T02:14:14.088Z,0.00
2018-09-01T02:15:14.078Z,0.00
2018-09-01T02:16:14.096Z,0.00
2018-09-01T02:17:14.054Z,0.00
2018-09-01T02:18:14.051Z,0.00
2018-09-01T02:19:14.040Z,0.00
2018-09-01T02:20:14.016Z,0.00
2018-09-01T02:21:14.049Z,0.00
2018-09-01T02:22:13.996Z,0.00
2018-09-01T02:23:13.984Z,0.00
2018-09-01T02:24:13.969Z,0.00
2018-09-01T02:25:14.004Z,0.00
2018-09-01T02:26:13.949Z,0.00
2018-09-01T02:27:13.961Z,0.00
2018-09-01T02:28:13.925Z,0.00
2018-09-01T02:29:13.919Z,0.00
2018-09-01T02:30:13.975Z,0.00
2018-09-01T02:31:13.962Z,0.00
2018-09-01T02:32:13.883Z,0.00
2018-09-01T02:33:13.926Z,0.00
2018-09-01T02:34:13.862Z,0.00
2018-09-01T02:35:13.850Z,0.00
2018-09-01T02:36:13.845Z,0.00
2018-09-01T02:37:13.827Z,0.00
2018-09-01T02:38:13.842Z,0.00
2018-09-01T02:39:13.840Z,0.00
2018-09-01T02:40:13.821Z,0.00
2018-09-01T02:41:13.783Z,0.00
2018-09-01T02:42:13.771Z,0.00
2018-09-01T02:43:13.805Z,0.00
2018-09-01T02:44:13.750Z,0.00
2018-09-01T02:45:13.738Z,0.00
2018-09-01T02:46:13.754Z,0.00
2018-09-01T02:47:13.753Z,0.00
2018-09-01T02:48:13.709Z,0.00
2018-09-01T02:49:13.695Z,0.00
2018-09-01T02:50:13.688Z,0.00
2018-09-01T02:51:13.674Z,0.00
2018-09-01T02:52:13.687Z,0.00
2018-09-01T02:53:13.675Z,0.00
2018-09-01T02:54:13.640Z,0.00
2018-09-01T02:55:13.653Z,0.00
2018-09-01T02:56:13.643Z,0.00
2018-09-01T02:57:13.612Z,0.00
2018-09-01T02:58:13.597Z,0.00
2018-09-01T02:59:13.579Z,0.00
2018-09-01T03:00:13.580Z,0.00
2018-09-01T03:01:13.627Z,0.00
2018-09-01T03:02:13.550Z,0.00
2018-09-01T03:03:13.536Z,0.00
2018-09-01T03:04:13.549Z,0.00
2018-09-01T03:05:13.528Z,0.00
2018-09-01T03:06:13.505Z,0.00
2018-09-01T03:07:13.518Z,0.00
2018-09-01T03:08:13.482Z,0.00
2018-09-01T03:09:13.465Z,0.00
2018-09-01T03:10:13.475Z,0.00
2018-09-01T03:11:13.448Z,0.00
2018-09-01T03:12:13.464Z,0.00
2018-09-01T03:13:13.420Z,0.00
2018-09-01T03:14:13.482Z,0.00
2018-09-01T03:15:13.401Z,0.00
2018-09-01T03:16:13.448Z,0.00
2018-09-01T03:17:13.377Z,0.00
2018-09-01T03:18:13.368Z,0.00
2018-09-01T03:19:13.364Z,0.00
2018-09-01T03:20:13.347Z,0.00
2018-09-01T03:21:13.367Z,0.00
2018-09-01T03:22:13.349Z,0.00
2018-09-01T03:23:13.313Z,0.00
2018-09-01T03:24:13.307Z,0.00
2018-09-01T03:25:13.290Z,0.00
2018-09-01T03:26:13.313Z,0.00
2018-09-01T03:27:13.272Z,0.00
2018-09-01T03:28:13.256Z,0.00
2018-09-01T03:29:13.292Z,0.00
2018-09-01T03:30:13.270Z,0.00
2018-09-01T03:31:13.227Z,0.00
2018-09-01T03:32:13.220Z,0.00
2018-09-01T03:33:13.203Z,0.00
2018-09-01T03:34:13.197Z,0.00
2018-09-01T03:35:13.214Z,0.00
2018-09-01T03:36:13.181Z,0.00
2018-09-01T03:37:13.168Z,0.00
2018-09-01T03:38:13.229Z,0.00
2018-09-01T03:39:13.134Z,0.00
2018-09-01T03:40:13.121Z,0.00
2018-09-01T03:41:13.124Z,0.00
2018-09-01T03:42:13.107Z,0.00
2018-09-01T03:43:13.142Z,0.00
2018-09-01T03:44:13.083Z,0.00
2018-09-01T03:45:13.070Z,0.00
2018-09-01T03:46:13.069Z,0.00
2018-09-01T03:47:13.069Z,0.00
2018-09-01T03:48:13.071Z,0.00
2018-09-01T03:49:13.029Z,0.00
2018-09-01T03:50:13.024Z,0.00
2018-09-01T03:51:13.007Z,0.00
2018-09-01T03:52:12.993Z,0.00
2018-09-01T03:53:13.019Z,0.00
2018-09-01T03:54:12.982Z,0.00
2018-09-01T03:55:12.962Z,0.00
2018-09-01T03:56:12.949Z,0.00
2018-09-01T03:57:12.944Z,0.00
2018-09-01T03:58:12.964Z,0.00
2018-09-01T03:59:12.912Z,0.00
2018-09-01T04:00:12.903Z,0.00
2018-09-01T04:01:12.896Z,0.00
2018-09-01T04:02:12.923Z,0.00
2018-09-01T04:03:12.873Z,0.00
2018-09-01T04:04:12.872Z,0.00
2018-09-01T04:05:12.855Z,0.00
2018-09-01T04:06:12.886Z,0.00
2018-09-01T04:07:12.831Z,0.00
2018-09-01T04:08:12.821Z,0.00
2018-09-01T04:09:12.807Z,0.00
2018-09-01T04:10:12.796Z,0.00
2018-09-01T04:11:12.818Z,0.00
2018-09-01T04:12:12.801Z,0.00
2018-09-01T04:13:12.766Z,0.00
2018-09-01T04:14:12.759Z,0.00
2018-09-01T04:15:12.745Z,0.00
2018-09-01T04:16:12.732Z,0.00
2018-09-01T04:17:12.813Z,0.00
2018-09-01T04:18:12.774Z,0.00
2018-09-01T04:19:12.706Z,0.00
2018-09-01T04:20:12.689Z,0.00
2018-09-01T04:21:12.707Z,0.00
2018-09-01T04:22:12.700Z,4.00
2018-09-01T04:23:12.656Z,4.00
2018-09-01T04:24:19.984Z,0.00
2018-09-01T04:25:12.635Z,4.00
2018-09-01T04:26:12.622Z,4.00
2018-09-01T04:27:12.650Z,4.00
2018-09-01T04:28:12.600Z,4.00
2018-09-01T04:29:12.591Z,8.00
2018-09-01T04:31:19.611Z,8.00
2018-09-01T04:32:12.621Z,12.00
2018-09-01T04:33:12.547Z,12.00
2018-09-01T04:34:12.589Z,12.00
2018-09-01T04:35:12.564Z,16.00
2018-09-01T04:36:12.507Z,16.00
2018-09-01T04:37:12.539Z,20.00
2018-09-01T04:38:12.489Z,24.00
2018-09-01T04:39:12.496Z,28.00
2018-09-01T04:40:12.465Z,28.00
2018-09-01T04:41:12.483Z,32.00
2018-09-01T04:42:12.443Z,40.00
2018-09-01T04:43:12.432Z,40.00
2018-09-01T04:44:12.435Z,44.00
2018-09-01T04:45:12.411Z,48.00
2018-09-01T04:46:12.426Z,52.00
2018-09-01T04:47:12.455Z,60.00
2018-09-01T04:48:12.383Z,64.00
2018-09-01T04:49:12.365Z,68.00
2018-09-01T04:50:12.502Z,76.00
2018-09-01T04:51:12.342Z,80.00
2018-09-01T04:52:12.331Z,88.00
2018-09-01T04:53:12.344Z,92.00
2018-09-01T04:54:12.319Z,100.00
2018-09-01T04:55:12.342Z,108.00
2018-09-01T04:56:12.291Z,116.00
2018-09-01T04:57:12.274Z,120.00
2018-09-01T04:58:12.271Z,128.00
2018-09-01T04:59:12.260Z,136.00
2018-09-01T05:00:12.270Z,144.00
2018-09-01T05:01:12.508Z,152.00
2018-09-01T05:02:12.226Z,156.00
2018-09-01T05:03:12.240Z,168.00
2018-09-01T05:04:12.205Z,176.00
2018-09-01T05:05:12.204Z,180.00
2018-09-01T05:06:12.197Z,192.00
2018-09-01T05:07:12.211Z,200.00
2018-09-01T05:08:12.168Z,208.00
2018-09-01T05:09:12.150Z,216.00
2018-09-01T05:10:12.139Z,220.00
2018-09-01T05:11:12.126Z,236.00
2018-09-01T05:12:12.143Z,240.00
2018-09-01T05:13:12.113Z,252.00
2018-09-01T05:14:12.150Z,256.00
2018-09-01T05:15:12.077Z,268.00
2018-09-01T05:16:12.068Z,276.00
2018-09-01T05:17:12.100Z,284.00
2018-09-01T05:18:12.057Z,292.00
2018-09-01T05:19:12.121Z,300.00
2018-09-01T05:20:12.103Z,308.00
2018-09-01T05:21:12.051Z,316.00
2018-09-01T05:22:12.001Z,324.00
2018-09-01T05:23:12.002Z,332.00
2018-09-01T05:24:12.011Z,340.00
2018-09-01T05:25:11.974Z,348.00
2018-09-01T05:26:11.961Z,356.00
2018-09-01T05:27:11.953Z,360.00
2018-09-01T05:28:11.949Z,372.00
2018-09-01T05:29:11.970Z,380.00
2018-09-01T05:30:11.944Z,388.00
2018-09-01T05:31:11.908Z,396.00
2018-09-01T05:32:11.910Z,404.00
2018-09-01T05:33:11.887Z,408.00
2018-09-01T05:34:11.904Z,412.00
2018-09-01T05:35:11.900Z,424.00
2018-09-01T05:36:11.855Z,420.00
2018-09-01T05:37:11.877Z,436.00
2018-09-01T05:38:11.842Z,444.00
2018-09-01T05:39:11.815Z,456.00
2018-09-01T05:40:11.807Z,460.00
2018-09-01T05:41:11.817Z,468.00
2018-09-01T05:42:11.788Z,476.00
2018-09-01T05:43:11.770Z,480.00
2018-09-01T05:44:11.761Z,492.00
2018-09-01T05:45:11.788Z,504.00
2018-09-01T05:46:11.775Z,520.00
2018-09-01T05:47:11.729Z,532.00
2018-09-01T05:48:11.717Z,544.00
2018-09-01T05:49:11.709Z,552.00
2018-09-01T05:50:11.732Z,564.00
2018-09-01T05:51:11.700Z,568.00
2018-09-01T05:52:11.676Z,564.00
2018-09-01T05:53:11.670Z,568.00
2018-09-01T05:54:11.655Z,568.00
2018-09-01T05:55:11.676Z,568.00
2018-09-01T05:56:11.628Z,572.00
2018-09-01T05:57:11.616Z,576.00
2018-09-01T05:58:11.609Z,584.00
2018-09-01T05:59:11.622Z,592.00
2018-09-01T06:00:11.616Z,600.00
2018-09-01T06:01:11.571Z,604.00
2018-09-01T06:02:11.576Z,608.00
2018-09-01T06:03:11.558Z,612.00
2018-09-01T06:04:11.542Z,616.00
2018-09-01T06:05:11.568Z,612.00
2018-09-01T06:06:11.686Z,612.00
2018-09-01T06:07:11.504Z,612.00
2018-09-01T06:08:11.530Z,616.00
2018-09-01T06:09:11.492Z,616.00
2018-09-01T06:10:11.492Z,620.00
2018-09-01T06:11:11.466Z,620.00
2018-09-01T06:12:11.497Z,628.00
2018-09-01T06:13:11.445Z,632.00
2018-09-01T06:14:11.429Z,636.00
2018-09-01T06:15:11.416Z,640.00
2018-09-01T06:16:11.411Z,648.00
2018-09-01T06:17:11.435Z,652.00
2018-09-01T06:18:11.467Z,656.00
2018-09-01T06:19:11.426Z,656.00
2018-09-01T06:20:11.411Z,664.00
2018-09-01T06:21:11.346Z,664.00
2018-09-01T06:22:11.334Z,668.00
2018-09-01T06:23:11.327Z,668.00
2018-09-01T06:24:11.318Z,672.00
2018-09-01T06:25:11.340Z,680.00
2018-09-01T06:26:11.310Z,684.00
2018-09-01T06:27:11.280Z,692.00
2018-09-01T06:28:11.287Z,692.00
2018-09-01T06:29:11.267Z,696.00
2018-09-01T06:30:11.395Z,700.00
2018-09-01T06:31:11.239Z,708.00
2018-09-01T06:32:11.233Z,708.00
2018-09-01T06:33:11.264Z,716.00
2018-09-01T06:34:11.210Z,720.00
2018-09-01T06:35:11.255Z,724.00
2018-09-01T06:36:11.182Z,724.00
2018-09-01T06:37:11.174Z,732.00
2018-09-01T06:38:11.168Z,732.00
2018-09-01T06:39:11.155Z,740.00
2018-09-01T06:40:11.169Z,740.00
2018-09-01T06:41:11.161Z,744.00
2018-09-01T06:42:11.114Z,748.00
2018-09-01T06:43:11.240Z,752.00
2018-09-01T06:44:11.104Z,752.00
2018-09-01T06:45:11.084Z,756.00
2018-09-01T06:46:11.084Z,760.00
2018-09-01T06:47:11.113Z,760.00
2018-09-01T06:48:11.049Z,768.00
2018-09-01T06:49:11.041Z,768.00
2018-09-01T06:50:11.076Z,772.00
2018-09-01T06:51:11.051Z,772.00
2018-09-01T06:52:11.038Z,776.00
2018-09-01T06:53:10.995Z,780.00
2018-09-01T06:54:10.992Z,784.00
2018-09-01T06:55:10.984Z,788.00
2018-09-01T06:56:11.008Z,784.00
2018-09-01T06:57:10.949Z,784.00
2018-09-01T06:58:10.937Z,792.00
2018-09-01T06:59:10.937Z,804.00
2018-09-01T07:00:10.928Z,808.00
2018-09-01T07:01:10.945Z,812.00
2018-09-01T07:02:10.895Z,812.00
2018-09-01T07:03:10.917Z,816.00
2018-09-01T07:04:10.878Z,820.00
2018-09-01T07:05:10.864Z,824.00
2018-09-01T07:06:11.721Z,832.00
2018-09-01T07:07:10.887Z,832.00
2018-09-01T07:08:10.864Z,836.00
2018-09-01T07:09:10.861Z,840.00
2018-09-01T07:10:10.808Z,844.00
2018-09-01T07:11:10.792Z,844.00
2018-09-01T07:12:10.785Z,844.00
2018-09-01T07:13:10.800Z,848.00
2018-09-01T07:14:10.760Z,852.00
2018-09-01T07:15:10.764Z,852.00
2018-09-01T07:16:10.758Z,856.00
2018-09-01T07:17:10.731Z,860.00
2018-09-01T07:18:10.758Z,868.00
2018-09-01T07:19:10.706Z,864.00
2018-09-01T07:20:10.698Z,868.00
2018-09-01T07:21:10.788Z,872.00
2018-09-01T07:22:10.710Z,876.00
2018-09-01T07:23:10.896Z,872.00
2018-09-01T07:24:10.710Z,872.00
2018-09-01T07:25:10.754Z,876.00
2018-09-01T07:26:10.735Z,876.00
2018-09-01T07:27:10.655Z,876.00
2018-09-01T07:28:10.640Z,876.00
2018-09-01T07:29:10.599Z,880.00
2018-09-01T07:30:10.653Z,880.00
2018-09-01T07:31:10.932Z,880.00
2018-09-01T07:32:10.562Z,884.00
2018-09-01T07:33:10.647Z,880.00
2018-09-01T07:34:10.542Z,884.00
2018-09-01T07:35:10.550Z,884.00
2018-09-01T07:36:10.549Z,888.00
2018-09-01T07:37:10.507Z,888.00
2018-09-01T07:38:10.500Z,888.00
2018-09-01T07:39:10.488Z,892.00
2018-09-01T07:40:10.477Z,892.00
2018-09-01T07:41:10.512Z,888.00
2018-09-01T07:42:10.453Z,892.00
2018-09-01T07:43:10.444Z,900.00
2018-09-01T07:44:10.431Z,900.00
2018-09-01T07:45:10.421Z,900.00
2018-09-01T07:46:10.442Z,900.00
2018-09-01T07:47:10.396Z,904.00
2018-09-01T07:48:10.400Z,904.00
2018-09-01T07:49:10.449Z,900.00
2018-09-01T07:50:10.486Z,904.00
2018-09-01T07:51:10.385Z,908.00
2018-09-01T07:52:10.348Z,908.00
2018-09-01T07:53:10.327Z,912.00
2018-09-01T07:54:10.323Z,912.00
2018-09-01T07:55:10.343Z,916.00
2018-09-01T07:56:10.463Z,916.00
2018-09-01T07:57:10.284Z,920.00
2018-09-01T07:58:10.276Z,924.00
2018-09-01T07:59:10.270Z,928.00
2018-09-01T08:00:10.290Z,924.00
2018-09-01T08:01:10.245Z,928.00
2018-09-01T08:02:10.234Z,928.00
2018-09-01T08:03:10.221Z,928.00
2018-09-01T08:04:10.213Z,932.00
2018-09-01T08:05:10.242Z,932.00
2018-09-01T08:06:10.216Z,940.00
2018-09-01T08:07:10.183Z,940.00
2018-09-01T08:08:10.167Z,948.00
2018-09-01T08:09:10.161Z,948.00
2018-09-01T08:10:10.145Z,948.00
2018-09-01T08:11:10.169Z,952.00
2018-09-01T08:12:10.123Z,956.00
2018-09-01T08:13:10.207Z,956.00
2018-09-01T08:14:10.167Z,956.00
2018-09-01T08:15:10.088Z,956.00
2018-09-01T08:16:10.076Z,960.00
2018-09-01T08:17:10.073Z,960.00
2018-09-01T08:18:10.079Z,964.00
2018-09-01T08:19:10.045Z,968.00
2018-09-01T08:20:10.029Z,972.00
2018-09-01T08:21:10.027Z,976.00
2018-09-01T08:22:10.019Z,980.00
2018-09-01T08:23:10.032Z,984.00
2018-09-01T08:24:09.987Z,984.00
2018-09-01T08:25:09.978Z,988.00
2018-09-01T08:26:10.089Z,992.00
2018-09-01T08:27:09.988Z,996.00
2018-09-01T08:28:09.946Z,1000.00
2018-09-01T08:29:09.953Z,1004.00
2018-09-01T08:30:09.917Z,1008.00
2018-09-01T08:31:09.940Z,1016.00
2018-09-01T08:32:09.903Z,1016.00
2018-09-01T08:33:09.888Z,1028.00
2018-09-01T08:34:09.880Z,1036.00
2018-09-01T08:35:09.896Z,1044.00
2018-09-01T08:36:09.858Z,1048.00
2018-09-01T08:37:09.852Z,1052.00
2018-09-01T08:38:09.832Z,1060.00
2018-09-01T08:39:09.831Z,1064.00
2018-09-01T08:40:09.901Z,1068.00
2018-09-01T08:41:09.801Z,1068.00
2018-09-01T08:42:09.790Z,1072.00
2018-09-01T08:43:09.781Z,1076.00
2018-09-01T08:44:09.765Z,1088.00
2018-09-01T08:45:09.854Z,1100.00
2018-09-01T08:46:09.784Z,1104.00
2018-09-01T08:47:09.734Z,1100.00
2018-09-01T08:48:09.742Z,1108.00
2018-09-01T08:49:09.741Z,1120.00
2018-09-01T08:50:09.711Z,1124.00
2018-09-01T08:51:09.689Z,1132.00
2018-09-01T08:52:09.687Z,1140.00
2018-09-01T08:53:09.709Z,1144.00
2018-09-01T08:54:09.659Z,1148.00
2018-09-01T08:55:09.645Z,1160.00
2018-09-01T08:56:09.656Z,1156.00
2018-09-01T08:57:09.640Z,1148.00
2018-09-01T08:58:09.658Z,1148.00
2018-09-01T08:59:09.600Z,1152.00
2018-09-01T09:00:09.592Z,1164.00
2018-09-01T09:01:09.581Z,1172.00
2018-09-01T09:02:09.575Z,1184.00
2018-09-01T09:03:09.585Z,1192.00
2018-09-01T09:04:09.580Z,1212.00
2018-09-01T09:05:09.537Z,1216.00
2018-09-01T09:06:09.526Z,1232.00
2018-09-01T09:07:09.516Z,1240.00
2018-09-01T09:08:09.557Z,1244.00
2018-09-01T09:09:09.547Z,1244.00
2018-09-01T09:10:09.525Z,1244.00
2018-09-01T09:11:09.468Z,1248.00
2018-09-01T09:12:09.493Z,1256.00
2018-09-01T09:13:09.455Z,1256.00
2018-09-01T09:14:09.436Z,1256.00
2018-09-01T09:15:09.464Z,1264.00
2018-09-01T09:16:09.425Z,1268.00
2018-09-01T09:17:09.406Z,1272.00
2018-09-01T09:18:09.404Z,1280.00
2018-09-01T09:19:09.416Z,1284.00
2018-09-01T09:20:09.374Z,1296.00
2018-09-01T09:21:09.379Z,1312.00
2018-09-01T09:22:09.349Z,1324.00
2018-09-01T09:23:09.357Z,1328.00
2018-09-01T09:24:09.359Z,1340.00
2018-09-01T09:25:09.337Z,1352.00
2018-09-01T09:26:09.311Z,1368.00
2018-09-01T09:27:09.334Z,1384.00
2018-09-01T09:28:09.292Z,1396.00
2018-09-01T09:29:09.280Z,1396.00
2018-09-01T09:30:09.266Z,1400.00
2018-09-01T09:31:09.251Z,1396.00
2018-09-01T09:32:09.285Z,1404.00
2018-09-01T09:33:09.231Z,1404.00
2018-09-01T09:34:09.219Z,1408.00
2018-09-01T09:35:09.209Z,1416.00
2018-09-01T09:36:09.192Z,1432.00
2018-09-01T09:37:09.214Z,1436.00
2018-09-01T09:38:09.184Z,1448.00
2018-09-01T09:39:09.163Z,1276.00
2018-09-01T09:40:09.154Z,1444.00
2018-09-01T09:41:09.161Z,1480.00
2018-09-01T09:42:09.154Z,1496.00
2018-09-01T09:43:09.119Z,1496.00
2018-09-01T09:44:09.149Z,1244.00
2018-09-01T09:45:09.093Z,1212.00
2018-09-01T09:46:09.086Z,1220.00
2018-09-01T09:47:09.075Z,1224.00
2018-09-01T09:48:09.060Z,1484.00
2018-09-01T09:49:09.083Z,1524.00
2018-09-01T09:50:09.039Z,1536.00
2018-09-01T09:51:09.029Z,1560.00
2018-09-01T09:52:09.051Z,1572.00
2018-09-01T09:53:09.139Z,1588.00
2018-09-01T09:54:09.051Z,1596.00
2018-09-01T09:55:08.985Z,1732.00
2018-09-01T09:56:08.974Z,2004.00
2018-09-01T09:57:08.960Z,2136.00
2018-09-01T09:58:08.975Z,2156.00
2018-09-01T09:59:08.969Z,2160.00
2018-09-01T10:00:08.931Z,2100.00
2018-09-01T10:01:08.964Z,2124.00
2018-09-01T10:02:08.903Z,2208.00
2018-09-01T10:03:08.920Z,2316.00
2018-09-01T10:04:08.881Z,2400.00
2018-09-01T10:05:08.980Z,2256.00
2018-09-01T10:06:08.872Z,2000.00
2018-09-01T10:07:08.852Z,1868.00
2018-09-01T10:08:08.834Z,1828.00
2018-09-01T10:09:08.832Z,1836.00
2018-09-01T10:10:08.850Z,1876.00
2018-09-01T10:11:08.896Z,2164.00
2018-09-01T10:12:08.796Z,2272.00
2018-09-01T10:13:08.784Z,2352.00
2018-09-01T10:14:08.794Z,2308.00
2018-09-01T10:15:08.793Z,2264.00
2018-09-01T10:16:08.751Z,2184.00
2018-09-01T10:17:08.744Z,2084.00
2018-09-01T10:18:08.737Z,1936.00
2018-09-01T10:19:08.714Z,2004.00
2018-09-01T10:20:08.759Z,1980.00
2018-09-01T10:21:08.713Z,1968.00
2018-09-01T10:22:08.693Z,2000.00
2018-09-01T10:23:08.680Z,2100.00
2018-09-01T10:24:08.664Z,2176.00
2018-09-01T10:25:08.680Z,2048.00
2018-09-01T10:26:08.638Z,2244.00
2018-09-01T10:27:08.699Z,2864.00
2018-09-01T10:28:08.651Z,2732.00
2018-09-01T10:29:08.609Z,2768.00
2018-09-01T10:30:08.595Z,2748.00
2018-09-01T10:31:08.613Z,2600.00
2018-09-01T10:32:08.576Z,2432.00
2018-09-01T10:33:08.564Z,2444.00
2018-09-01T10:34:08.583Z,2404.00
2018-09-01T10:35:08.540Z,2304.00
2018-09-01T10:36:08.534Z,2472.00
2018-09-01T10:37:08.627Z,2456.00
2018-09-01T10:38:08.510Z,2428.00
2018-09-01T10:39:08.499Z,2392.00
2018-09-01T10:40:08.484Z,2344.00
2018-09-01T10:41:08.485Z,2404.00
2018-09-01T10:42:08.508Z,2552.00
2018-09-01T10:43:08.449Z,2736.00
2018-09-01T10:44:08.441Z,2860.00
2018-09-01T10:45:08.545Z,2928.00
2018-09-01T10:46:08.423Z,2920.00
2018-09-01T10:47:08.425Z,2848.00
2018-09-01T10:48:08.398Z,3000.00
2018-09-01T10:49:08.391Z,3256.00
2018-09-01T10:50:08.410Z,3332.00
2018-09-01T10:51:08.400Z,3200.00
2018-09-01T10:52:08.353Z,2964.00
2018-09-01T10:53:08.359Z,3084.00
2018-09-01T10:54:08.342Z,2936.00
2018-09-01T10:55:08.320Z,2944.00
2018-09-01T10:56:08.344Z,3140.00
2018-09-01T10:57:08.333Z,3284.00
2018-09-01T10:58:08.305Z,3140.00
2018-09-01T10:59:08.504Z,3588.00
2018-09-01T11:00:08.267Z,4128.00
2018-09-01T11:01:08.374Z,4264.00
2018-09-01T11:02:08.271Z,4432.00
2018-09-01T11:03:08.230Z,4588.00
2018-09-01T11:04:08.237Z,4664.00
2018-09-01T11:05:08.263Z,4620.00
2018-09-01T11:06:08.231Z,4660.00
2018-09-01T11:07:08.198Z,4824.00
2018-09-01T11:08:08.179Z,4580.00
2018-09-01T11:09:08.170Z,4072.00
2018-09-01T11:10:08.193Z,3956.00
2018-09-01T11:11:08.148Z,3200.00
2018-09-01T11:12:08.136Z,3036.00
2018-09-01T11:13:08.122Z,2556.00
2018-09-01T11:14:08.136Z,2388.00
2018-09-01T11:15:08.100Z,2424.00
2018-09-01T11:16:08.121Z,2500.00
2018-09-01T11:17:08.117Z,2532.00
2018-09-01T11:18:08.108Z,2584.00
2018-09-01T11:19:08.056Z,2664.00
2018-09-01T11:20:08.151Z,2772.00
2018-09-01T11:21:08.032Z,2780.00
2018-09-01T11:22:08.070Z,3044.00
2018-09-01T11:23:08.007Z,3160.00
2018-09-01T11:24:08.021Z,3280.00
2018-09-01T11:25:07.990Z,3508.00
2018-09-01T11:26:08.011Z,3704.00
2018-09-01T11:27:08.016Z,3744.00
2018-09-01T11:28:08.023Z,3884.00
2018-09-01T11:29:07.961Z,4008.00
2018-09-01T11:30:07.946Z,4192.00
2018-09-01T11:31:07.924Z,4328.00
2018-09-01T11:32:07.922Z,4492.00
2018-09-01T11:33:07.960Z,4652.00
2018-09-01T11:34:07.906Z,4744.00
2018-09-01T11:35:07.884Z,5040.00
2018-09-01T11:36:07.934Z,5072.00
2018-09-01T11:37:07.861Z,4584.00
2018-09-01T11:38:07.884Z,4264.00
2018-09-01T11:39:07.838Z,4116.00
2018-09-01T11:40:07.865Z,4148.00
2018-09-01T11:41:08.788Z,4056.00
2018-09-01T11:42:07.814Z,4024.00
2018-09-01T11:43:08.058Z,3804.00
2018-09-01T11:44:07.784Z,3636.00
2018-09-01T11:45:07.811Z,3596.00
2018-09-01T11:46:07.812Z,4060.00
2018-09-01T11:47:07.764Z,4380.00
2018-09-01T11:48:07.758Z,4896.00
2018-09-01T11:49:07.723Z,5172.00
2018-09-01T11:50:07.742Z,5296.00
2018-09-01T11:51:07.718Z,5472.00
2018-09-01T11:52:07.697Z,5752.00
2018-09-01T11:53:07.689Z,5844.00
2018-09-01T11:54:07.672Z,5732.00
2018-09-01T11:55:07.690Z,5696.00
2018-09-01T11:56:07.653Z,5860.00
2018-09-01T11:57:07.684Z,6092.00
2018-09-01T11:58:07.635Z,5876.00
2018-09-01T11:59:07.656Z,5816.00
2018-09-01T12:00:07.602Z,5848.00
2018-09-01T12:01:07.696Z,5608.00
2018-09-01T12:02:07.665Z,5512.00
2018-09-01T12:03:07.581Z,5952.00
2018-09-01T12:04:07.584Z,6064.00
2018-09-01T12:05:07.547Z,5440.00
2018-09-01T12:06:07.551Z,5336.00
2018-09-01T12:07:07.563Z,5108.00
2018-09-01T12:08:07.516Z,4952.00
2018-09-01T12:09:07.578Z,4804.00
2018-09-01T12:10:07.496Z,5008.00
2018-09-01T12:11:07.487Z,5152.00
2018-09-01T12:12:07.517Z,5040.00
2018-09-01T12:13:07.465Z,4984.00
2018-09-01T12:14:07.452Z,4964.00
2018-09-01T12:15:07.441Z,4836.00
2018-09-01T12:16:07.431Z,5292.00
2018-09-01T12:17:07.450Z,5364.00
2018-09-01T12:18:07.445Z,5064.00
2018-09-01T12:19:07.407Z,4856.00
2018-09-01T12:20:07.416Z,5020.00
2018-09-01T12:21:07.389Z,5348.00
2018-09-01T12:22:07.405Z,5512.00
2018-09-01T12:23:07.397Z,4924.00
2018-09-01T12:24:07.340Z,4328.00
2018-09-01T12:25:07.338Z,3984.00
2018-09-01T12:26:07.326Z,4080.00
2018-09-01T12:27:07.311Z,4424.00
2018-09-01T12:28:07.362Z,4872.00
2018-09-01T12:29:07.285Z,5224.00
2018-09-01T12:30:07.312Z,5648.00
2018-09-01T12:31:07.303Z,6188.00
2018-09-01T12:32:07.267Z,6820.00
2018-09-01T12:33:07.246Z,7436.00
2018-09-01T12:34:07.237Z,30400.00
2018-09-01T12:35:07.231Z,62016.00
2018-09-01T12:36:07.261Z,62528.00
2018-09-01T12:37:07.200Z,63040.00
2018-09-01T12:38:07.190Z,56256.00
2018-09-01T12:39:07.178Z,10176.00